Weather at Adareil Airport

Public forecast

Using degrees Celsius for public forecast. Weather courtesy of forecast.io.

Closest aviation weather report (METAR) to Adareil Airport

Closest report is Addis Ababa Bole International Airport, 351.8 nm (651.5 km) E.

2024/07/22 11:00 (retrieved 12 minutes ago)

HAAB 221100Z 21008KT 9999 BKN025 20/14 Q1027

Closest aviation forecast (TAF) to Adareil Airport

Forecast is more than 12 hours old.

Closest forecast is Bahir Dar Airport, 273.6 nm (506.8 km) ENE.

2024/07/20 16:20 (retrieved 2 days ago)

TAF HABD 201530Z 2016/2122 34006KT 4000 TSRA OVC020